Time;durP1;ratioP1;P1;durP2;ratioP2;P2;SDS_P1;SDS_P2;PMS_P1;PMS_P2;Temp;Humidity;BMP_temperature;BMP_pressure;BME280_temperature;BME280_humidity;BME280_pressure;Samples;Min_cycle;Max_cycle;Signal;HPM_P1;HPM_P2
2023/09/15 00:01:32;;;;;;;4.60;4.30;;;;;;;11.78;100.00;97328.38;4940326;28;20203;-62
2023/09/15 00:04:03;;;;;;;5.17;4.73;;;;;;;11.79;100.00;97317.56;4937880;28;20237;-61
2023/09/15 00:06:31;;;;;;;5.20;4.90;;;;;;;11.77;100.00;97324.91;4957171;28;20222;-63
2023/09/15 00:08:59;;;;;;;4.73;4.43;;;;;;;11.74;100.00;97327.94;4899804;28;20242;-61
2023/09/15 00:11:39;;;;;;;5.03;4.73;;;;;;;11.77;100.00;97327.53;4956151;28;20234;-63
2023/09/15 00:14:10;;;;;;;4.63;4.33;;;;;;;11.77;100.00;97319.59;4950336;28;20226;-62
2023/09/15 00:16:39;;;;;;;4.50;4.20;;;;;;;11.79;100.00;97322.06;4941339;28;20207;-63
2023/09/15 00:19:08;;;;;;;4.73;4.40;;;;;;;11.80;100.00;97324.50;4807007;28;20413;-63
2023/09/15 00:21:38;;;;;;;4.53;4.23;;;;;;;11.77;100.00;97316.94;4942050;28;20215;-60
2023/09/15 00:24:06;;;;;;;4.67;4.37;;;;;;;11.71;100.00;97321.16;4936333;28;20733;-61
2023/09/15 00:26:36;;;;;;;5.30;5.00;;;;;;;11.69;100.00;97317.84;4940541;28;20203;-63
2023/09/15 00:29:04;;;;;;;5.00;4.60;;;;;;;11.67;100.00;97311.13;4932796;28;20210;-61
2023/09/15 00:31:32;;;;;;;5.03;4.73;;;;;;;11.70;100.00;97318.69;4939504;28;20204;-64
2023/09/15 00:33:59;;;;;;;4.50;4.20;;;;;;;11.73;100.00;97313.81;4933525;28;20227;-61
2023/09/15 00:36:27;;;;;;;5.37;5.07;;;;;;;11.70;100.00;97311.53;4938888;28;20208;-58
2023/09/15 00:38:55;;;;;;;5.27;4.87;;;;;;;11.69;100.00;97317.84;4935515;28;20199;-64
2023/09/15 00:41:22;;;;;;;5.40;5.00;;;;;;;11.70;100.00;97318.69;4935096;28;20242;-64
2023/09/15 00:43:52;;;;;;;4.53;4.23;;;;;;;11.66;100.00;97328.84;4899170;28;21122;-61
2023/09/15 00:46:20;;;;;;;4.50;4.20;;;;;;;11.68;100.00;97326.84;4929526;28;20257;-62
2023/09/15 00:48:48;;;;;;;5.33;4.93;;;;;;;11.62;100.00;97326.78;4936894;28;20259;-62
2023/09/15 00:51:16;;;;;;;5.17;4.77;;;;;;;11.54;100.00;97330.34;4940143;28;20211;-62
2023/09/15 00:53:45;;;;;;;5.00;4.60;;;;;;;11.61;100.00;97330.44;4853080;28;20848;-63
2023/09/15 00:56:13;;;;;;;4.50;4.20;;;;;;;11.58;100.00;97332.47;4907836;28;20258;-61
2023/09/15 00:58:41;;;;;;;4.83;4.33;;;;;;;11.52;100.00;97327.88;4937068;28;20297;-66
2023/09/15 01:01:10;;;;;;;5.10;4.63;;;;;;;11.49;100.00;97322.94;4943285;28;20221;-59
2023/09/15 01:03:41;;;;;;;4.97;4.63;;;;;;;11.49;100.00;97322.94;4938005;28;20238;-63
2023/09/15 01:06:11;;;;;;;5.73;4.93;;;;;;;11.41;100.00;97323.06;4938884;28;20369;-62
2023/09/15 01:08:39;;;;;;;5.27;4.97;;;;;;;11.38;100.00;97326.91;4939160;28;20691;-63
2023/09/15 01:11:06;;;;;;;5.10;4.70;;;;;;;11.34;100.00;97330.13;4936074;28;20303;-63
2023/09/15 01:13:35;;;;;;;4.70;4.40;;;;;;;11.34;100.00;97330.94;4937232;28;20215;-64
2023/09/15 01:16:08;;;;;;;5.30;5.00;;;;;;;11.30;100.00;97332.31;4933755;28;20871;-62
2023/09/15 01:18:42;;;;;;;5.37;4.93;;;;;;;11.23;100.00;97318.16;4919887;28;20214;-58
2023/09/15 01:21:26;;;;;;;5.20;4.80;;;;;;;11.22;100.00;97330.59;4915207;28;20211;-62
2023/09/15 01:24:21;;;;;;;5.03;4.73;;;;;;;11.26;100.00;97328.38;4823754;28;20739;-61
2023/09/15 01:27:06;;;;;;;5.17;4.77;;;;;;;11.26;100.00;97326.56;4909411;28;20270;-64
2023/09/15 01:29:41;;;;;;;5.63;5.13;;;;;;;11.18;100.00;97331.97;4934097;28;20211;-64
2023/09/15 01:32:10;;;;;;;4.87;4.57;;;;;;;11.20;100.00;97329.13;4937040;28;20741;-61
2023/09/15 01:34:38;;;;;;;5.20;4.90;;;;;;;11.21;100.00;97328.13;4935992;28;20317;-60
2023/09/15 01:37:05;;;;;;;4.93;4.63;;;;;;;11.18;100.00;97323.19;4939266;28;20204;-60
2023/09/15 01:39:33;;;;;;;5.90;5.50;;;;;;;11.15;100.00;97322.53;4936860;28;20203;-62
2023/09/15 01:42:01;;;;;;;4.83;4.53;;;;;;;11.13;100.00;97327.22;4936783;28;20217;-62
2023/09/15 01:44:28;;;;;;;5.20;4.90;;;;;;;11.13;100.00;97324.56;4936490;28;20250;-63
2023/09/15 01:46:57;;;;;;;5.60;5.10;;;;;;;11.15;100.00;97322.53;4937807;28;20203;-63
2023/09/15 01:49:25;;;;;;;5.90;5.50;;;;;;;11.19;100.00;97327.47;4935352;28;20228;-62
2023/09/15 01:51:54;;;;;;;5.27;4.73;;;;;;;11.12;100.00;97328.22;4935984;28;20667;-59
2023/09/15 01:54:22;;;;;;;5.73;5.33;;;;;;;11.10;100.00;97330.25;4886086;28;20277;-66
2023/09/15 01:56:50;;;;;;;6.13;5.57;;;;;;;11.06;100.00;97331.63;4936587;28;20979;-58
2023/09/15 01:59:17;;;;;;;5.73;5.33;;;;;;;11.06;100.00;97336.91;4805311;28;20287;-60
2023/09/15 02:01:45;;;;;;;6.40;5.90;;;;;;;11.00;100.00;97330.50;4937393;28;20230;-62
2023/09/15 02:04:14;;;;;;;6.27;4.80;;;;;;;11.02;100.00;97335.63;4932413;28;20278;-60
2023/09/15 02:06:42;;;;;;;5.73;5.33;;;;;;;11.06;100.00;97341.38;4934455;28;20207;-64
2023/09/15 02:09:10;;;;;;;5.23;4.93;;;;;;;11.06;100.00;97321.00;4935642;28;20301;-61
2023/09/15 02:11:37;;;;;;;5.47;5.10;;;;;;;11.02;100.00;97317.09;4937757;28;20746;-61
2023/09/15 02:14:05;;;;;;;4.93;4.63;;;;;;;11.06;100.00;97320.16;4934121;28;20297;-62
2023/09/15 02:16:33;;;;;;;6.03;5.60;;;;;;;11.05;100.00;97314.06;4937695;28;20640;-63
2023/09/15 02:19:00;;;;;;;7.07;6.30;;;;;;;11.10;100.00;97316.13;4934340;28;20208;-61
2023/09/15 02:21:30;;;;;;;5.67;5.27;;;;;;;11.13;100.00;97321.91;4937861;28;20211;-64
2023/09/15 02:23:57;;;;;;;5.43;5.03;;;;;;;11.23;100.00;97318.97;4884196;28;20506;-63
2023/09/15 02:26:25;;;;;;;5.27;4.97;;;;;;;11.27;100.00;97314.94;4940575;28;20302;-63
2023/09/15 02:28:53;;;;;;;5.70;5.30;;;;;;;11.28;100.00;97307.81;4825521;28;21175;-63
2023/09/15 02:31:21;;;;;;;5.50;5.10;;;;;;;11.36;100.00;97315.66;4928383;28;20211;-65
2023/09/15 02:33:49;;;;;;;5.77;5.27;;;;;;;11.35;100.00;97308.69;4931063;28;20679;-62
2023/09/15 02:36:16;;;;;;;6.20;5.80;;;;;;;11.39;100.00;97301.19;4940483;28;20274;-62
2023/09/15 02:38:45;;;;;;;5.50;5.10;;;;;;;11.40;100.00;97300.19;4936748;28;20241;-64
2023/09/15 02:41:13;;;;;;;5.80;5.40;;;;;;;11.42;100.00;97296.34;4939100;28;20236;-64
2023/09/15 02:43:41;;;;;;;6.07;5.67;;;;;;;11.41;100.00;97297.38;4935223;28;20265;-64
2023/09/15 02:46:08;;;;;;;5.37;5.03;;;;;;;11.44;100.00;97298.81;4934437;28;20286;-59
2023/09/15 02:48:36;;;;;;;5.90;5.50;;;;;;;11.47;100.00;97302.94;4937130;28;20290;-64
2023/09/15 02:51:05;;;;;;;5.47;4.97;;;;;;;11.40;100.00;97297.53;4906414;28;21735;-64
2023/09/15 02:53:32;;;;;;;5.13;4.73;;;;;;;11.48;100.00;97301.91;4908402;28;20710;-65
2023/09/15 02:56:03;;;;;;;5.40;5.10;;;;;;;11.47;100.00;97292.31;4920925;28;20729;-61
2023/09/15 02:58:31;;;;;;;5.57;5.17;;;;;;;11.52;100.00;97290.72;4906223;28;20733;-63
2023/09/15 03:00:59;;;;;;;5.10;4.70;;;;;;;11.61;100.00;97288.78;4887561;28;20934;-63
2023/09/15 03:03:29;;;;;;;4.90;4.60;;;;;;;11.64;100.00;97285.75;4866900;28;20214;-63
2023/09/15 03:06:03;;;;;;;4.83;4.53;;;;;;;11.60;100.00;97281.03;4937934;28;20221;-62
2023/09/15 03:08:31;;;;;;;6.77;4.60;;;;;;;11.67;100.00;97285.38;4874240;28;20297;-60
2023/09/15 03:10:59;;;;;;;5.30;4.90;;;;;;;11.68;100.00;97288.88;4938277;28;20230;-60
2023/09/15 03:13:28;;;;;;;5.53;5.03;;;;;;;11.64;100.00;97269.03;4935324;28;20679;-62
2023/09/15 03:15:55;;;;;;;5.73;5.20;;;;;;;11.72;100.00;97290.94;4935703;28;20227;-62
2023/09/15 03:18:23;;;;;;;5.73;5.33;;;;;;;11.70;100.00;97282.34;4935897;28;20231;-60
2023/09/15 03:20:51;;;;;;;5.37;5.07;;;;;;;11.67;100.00;97281.91;4936672;28;20234;-64
2023/09/15 03:23:18;;;;;;;5.10;4.70;;;;;;;11.67;100.00;97281.91;4876724;28;20261;-61
2023/09/15 03:25:46;;;;;;;5.03;4.73;;;;;;;11.64;100.00;97279.66;4937796;28;20883;-63
2023/09/15 03:28:14;;;;;;;5.07;4.77;;;;;;;11.56;100.00;97277.91;4881402;28;20371;-63
2023/09/15 03:30:43;;;;;;;4.43;4.03;;;;;;;11.52;100.00;97274.81;4876111;28;20210;-63
2023/09/15 03:33:10;;;;;;;5.60;5.20;;;;;;;11.50;100.00;97274.19;4934992;28;20207;-63
2023/09/15 03:35:38;;;;;;;5.30;5.00;;;;;;;11.49;100.00;97274.38;4808538;28;20237;-64
2023/09/15 03:38:06;;;;;;;5.00;4.60;;;;;;;11.44;100.00;97269.63;4937755;28;20540;-63
2023/09/15 03:40:33;;;;;;;5.50;5.10;;;;;;;11.39;100.00;97270.22;4933700;28;20290;-63
2023/09/15 03:43:01;;;;;;;5.37;4.97;;;;;;;11.34;100.00;97282.38;4936687;28;20297;-61
2023/09/15 03:45:29;;;;;;;5.00;4.70;;;;;;;11.32;100.00;97279.09;4880695;28;20227;-63
2023/09/15 03:47:57;;;;;;;5.40;5.00;;;;;;;11.32;100.00;97282.53;4937647;28;20235;-63
2023/09/15 03:50:26;;;;;;;4.57;4.37;;;;;;;11.31;100.00;97275.59;4936460;28;20302;-62
2023/09/15 03:52:54;;;;;;;5.40;5.10;;;;;;;11.25;100.00;97282.50;4939944;28;20305;-62
2023/09/15 03:55:21;;;;;;;4.83;4.53;;;;;;;11.24;100.00;97286.16;4934528;28;20291;-62
2023/09/15 03:57:49;;;;;;;5.23;4.90;;;;;;;11.22;100.00;97284.69;4939510;28;20215;-61
2023/09/15 04:00:19;;;;;;;5.17;4.87;;;;;;;11.17;100.00;97273.81;4863894;28;20226;-64
2023/09/15 04:02:47;;;;;;;4.93;4.63;;;;;;;11.24;100.00;97288.81;4901118;28;20222;-64
2023/09/15 04:05:16;;;;;;;5.40;5.10;;;;;;;11.15;100.00;97277.47;4915928;28;20726;-61
2023/09/15 04:07:44;;;;;;;5.00;4.70;;;;;;;11.28;100.00;97295.38;4847845;28;20225;-64
2023/09/15 04:10:12;;;;;;;5.10;4.80;;;;;;;11.24;100.00;97291.44;4937556;28;20488;-64
2023/09/15 04:12:42;;;;;;;4.80;4.50;;;;;;;11.24;100.00;97302.06;4895474;28;21187;-61
2023/09/15 04:15:11;;;;;;;4.40;4.20;;;;;;;11.23;100.00;97295.13;4938339;28;20231;-67
2023/09/15 04:17:39;;;;;;;4.83;4.53;;;;;;;11.27;100.00;97293.72;4937959;28;20195;-59
2023/09/15 04:20:10;;;;;;;4.97;4.67;;;;;;;11.26;100.00;97297.41;4940161;28;20586;-62
2023/09/15 04:22:40;;;;;;;5.43;5.03;;;;;;;11.29;100.00;97296.19;4937858;28;20298;-62
2023/09/15 04:25:09;;;;;;;7.33;6.83;;;;;;;11.33;100.00;97291.34;4941122;28;20329;-62
2023/09/15 04:27:37;;;;;;;6.03;5.53;;;;;;;11.35;100.00;97294.63;4875243;28;20250;-63
2023/09/15 04:30:06;;;;;;;5.20;4.80;;;;;;;11.37;100.00;97300.56;4937230;28;20361;-62
2023/09/15 04:32:34;;;;;;;7.27;5.30;;;;;;;11.40;100.00;97302.84;4885701;28;20305;-63
2023/09/15 04:35:03;;;;;;;5.00;4.70;;;;;;;11.43;100.00;97299.81;4938136;28;20238;-61
2023/09/15 04:37:31;;;;;;;4.77;4.47;;;;;;;11.49;100.00;97308.88;4809622;28;20242;-62
2023/09/15 04:40:01;;;;;;;6.13;5.63;;;;;;;11.47;100.00;97309.03;4939195;28;20649;-64
2023/09/15 04:42:28;;;;;;;5.47;5.00;;;;;;;11.51;100.00;97299.69;4900931;28;20246;-64
2023/09/15 04:44:56;;;;;;;5.33;5.03;;;;;;;11.48;100.00;97301.91;4940900;28;20230;-63
2023/09/15 04:47:31;;;;;;;5.43;5.03;;;;;;;11.47;100.00;97301.09;4937794;28;20207;-64
2023/09/15 04:49:59;;;;;;;5.63;5.27;;;;;;;11.44;100.00;97298.81;4938974;28;20198;-62
2023/09/15 04:52:27;;;;;;;6.37;5.80;;;;;;;11.30;100.00;97300.47;4936079;28;20219;-62
2023/09/15 04:54:55;;;;;;;6.13;5.67;;;;;;;11.43;100.00;97305.13;4876097;28;20219;-61
2023/09/15 04:57:25;;;;;;;5.70;5.27;;;;;;;11.41;100.00;97307.97;4935362;28;20230;-62
2023/09/15 04:59:54;;;;;;;5.53;5.17;;;;;;;11.48;100.00;97310.69;4935103;28;20307;-61
2023/09/15 05:02:23;;;;;;;5.60;5.20;;;;;;;11.54;100.00;97309.94;4937912;28;20256;-62
2023/09/15 05:04:52;;;;;;;5.73;5.43;;;;;;;11.57;100.00;97303.44;4885533;28;20372;-60
2023/09/15 05:07:20;;;;;;;5.60;5.20;;;;;;;11.57;100.00;97298.13;4937456;28;20203;-63
2023/09/15 05:09:48;;;;;;;5.93;5.43;;;;;;;11.60;100.00;97299.59;4801765;28;20728;-63
2023/09/15 05:12:16;;;;;;;5.53;5.07;;;;;;;11.64;100.00;97300.88;4938550;28;20218;-63
2023/09/15 05:14:45;;;;;;;5.10;4.80;;;;;;;11.68;100.00;97299.50;4881815;28;20309;-64
2023/09/15 05:17:13;;;;;;;5.60;5.20;;;;;;;11.68;100.00;97300.28;4902382;28;20930;-62
2023/09/15 05:19:41;;;;;;;5.77;5.27;;;;;;;11.70;100.00;97298.28;4938700;28;20265;-63
2023/09/15 05:22:08;;;;;;;5.77;5.37;;;;;;;11.71;100.00;97297.25;4935530;28;20210;-64
2023/09/15 05:24:36;;;;;;;5.80;5.40;;;;;;;11.70;100.00;97298.28;4939187;28;20285;-64
2023/09/15 05:27:04;;;;;;;5.87;5.47;;;;;;;11.75;100.00;97302.22;4936581;28;20325;-61
2023/09/15 05:29:32;;;;;;;6.40;5.90;;;;;;;11.77;100.00;97302.84;4941069;28;20828;-61
2023/09/15 05:32:01;;;;;;;5.40;5.00;;;;;;;11.71;100.00;97304.41;4889301;28;20580;-65
2023/09/15 05:34:29;;;;;;;5.43;5.03;;;;;;;11.64;100.00;97299.03;4939067;28;20241;-63
2023/09/15 05:36:56;;;;;;;5.73;5.20;;;;;;;11.67;100.00;97300.50;4881792;28;20230;-63
2023/09/15 05:39:24;;;;;;;4.73;4.43;;;;;;;11.64;100.00;97301.69;4938475;28;20202;-66
2023/09/15 05:41:52;;;;;;;5.83;4.93;;;;;;;11.75;100.00;97302.22;4807637;28;20226;-63
2023/09/15 05:44:19;;;;;;;5.40;5.10;;;;;;;11.88;100.00;97305.00;4936490;28;20239;-64
2023/09/15 05:46:48;;;;;;;7.17;6.57;;;;;;;11.97;100.00;97301.19;4897327;28;20243;-64
2023/09/15 05:49:17;;;;;;;5.93;5.50;;;;;;;12.03;100.00;97304.97;4938219;28;20221;-63
2023/09/15 05:51:46;;;;;;;5.13;4.77;;;;;;;12.22;100.00;97307.97;4935825;28;20555;-61
2023/09/15 05:54:14;;;;;;;5.47;5.13;;;;;;;12.21;100.00;97304.50;4935995;28;20226;-64
2023/09/15 05:56:41;;;;;;;5.87;5.53;;;;;;;12.29;100.00;97295.56;4935467;28;20227;-62
2023/09/15 05:59:09;;;;;;;5.07;4.73;;;;;;;12.42;100.00;97306.31;4938357;28;20301;-61
2023/09/15 06:01:37;;;;;;;5.33;5.03;;;;;;;12.44;100.00;97301.63;4936302;28;20714;-60
2023/09/15 06:04:07;;;;;;;5.50;5.10;;;;;;;12.48;100.00;97303.91;4934539;28;20583;-60
2023/09/15 06:06:36;;;;;;;5.23;4.83;;;;;;;12.56;100.00;97301.09;4884768;28;20303;-62
2023/09/15 06:09:04;;;;;;;4.97;4.57;;;;;;;12.68;100.00;97294.22;4938738;28;20310;-63
2023/09/15 06:11:32;;;;;;;5.23;4.80;;;;;;;12.78;100.00;97296.53;4934903;28;20458;-63
2023/09/15 06:13:59;;;;;;;5.03;4.73;;;;;;;12.90;100.00;97291.50;4936685;28;20262;-62
2023/09/15 06:16:27;;;;;;;4.53;3.97;;;;;;;12.94;100.00;97292.72;4806032;28;20228;-61
2023/09/15 06:18:55;;;;;;;5.10;4.70;;;;;;;13.11;100.00;97282.59;4938963;28;20202;-63
2023/09/15 06:21:22;;;;;;;5.07;4.77;;;;;;;13.25;100.00;97288.78;4932921;28;20722;-61
2023/09/15 06:23:51;;;;;;;4.90;4.60;;;;;;;13.34;100.00;97291.28;4938706;28;20258;-63
2023/09/15 06:26:19;;;;;;;4.60;4.30;;;;;;;13.35;100.00;97285.78;4933866;28;20293;-64
2023/09/15 06:28:47;;;;;;;5.37;5.07;;;;;;;13.37;100.00;97289.06;4939062;28;20230;-63
2023/09/15 06:31:15;;;;;;;5.20;4.87;;;;;;;13.54;100.00;97288.72;4932774;28;20494;-63
2023/09/15 06:33:43;;;;;;;4.47;4.13;;;;;;;13.56;100.00;97281.34;4936693;28;20210;-62
2023/09/15 06:36:11;;;;;;;5.00;4.37;;;;;;;13.59;100.00;97287.09;4932573;28;20317;-61
2023/09/15 06:38:39;;;;;;;4.60;4.30;;;;;;;13.67;100.00;97287.94;4938232;28;20334;-62
2023/09/15 06:41:08;;;;;;;4.60;4.30;;;;;;;13.74;100.00;97291.44;4888452;28;20652;-62
2023/09/15 06:43:36;;;;;;;4.90;4.60;;;;;;;13.82;100.00;97287.75;4936442;28;20198;-62
2023/09/15 06:46:04;;;;;;;9.30;5.50;;;;;;;13.81;100.00;97292.25;4933759;28;21082;-63
2023/09/15 06:48:32;;;;;;;4.67;4.37;;;;;;;13.89;100.00;97289.44;4938950;28;20203;-66
2023/09/15 06:51:00;;;;;;;5.60;4.80;;;;;;;14.04;100.00;97289.25;4810271;28;20218;-64
2023/09/15 06:53:27;;;;;;;7.60;5.07;;;;;;;14.12;100.00;97287.41;4939013;28;20274;-64
2023/09/15 06:55:56;;;;;;;5.40;4.73;;;;;;;14.26;100.00;97286.38;4937036;28;20223;-62
2023/09/15 06:58:25;;;;;;;8.73;5.67;;;;;;;14.43;100.00;97281.44;4937821;28;20338;-61
2023/09/15 07:00:55;;;;;;;4.57;4.10;;;;;;;14.58;100.00;97272.38;4936016;28;20207;-61
2023/09/15 07:03:24;;;;;;;6.47;4.53;;;;;;;14.57;100.00;97274.25;4939299;28;20203;-62
2023/09/15 07:05:51;;;;;;;5.47;4.83;;;;;;;14.67;100.00;97279.16;4934480;28;20226;-64
2023/09/15 07:08:19;;;;;;;4.70;4.30;;;;;;;14.87;100.00;97283.66;4937353;28;20286;-60
2023/09/15 07:10:51;;;;;;;4.57;4.27;;;;;;;14.88;100.00;97280.78;4934881;28;20215;-64
2023/09/15 07:13:19;;;;;;;5.63;3.93;;;;;;;14.92;100.00;97291.84;4936598;28;20269;-60
2023/09/15 07:15:48;;;;;;;4.93;4.40;;;;;;;14.98;100.00;97279.53;4890958;28;20235;-61
2023/09/15 07:18:15;;;;;;;4.60;4.30;;;;;;;14.93;100.00;97277.47;4937540;28;20599;-64
2023/09/15 07:20:43;;;;;;;4.30;4.00;;;;;;;15.15;100.00;97269.22;4940975;28;20203;-65
2023/09/15 07:23:11;;;;;;;4.07;3.80;;;;;;;15.34;100.00;97267.47;4940008;28;20223;-61
2023/09/15 07:25:38;;;;;;;4.57;4.27;;;;;;;15.50;100.00;97266.19;4811827;28;20241;-62
2023/09/15 07:28:06;;;;;;;4.23;3.93;;;;;;;16.05;100.00;97262.97;4944498;28;20587;-65
2023/09/15 07:30:34;;;;;;;4.53;4.23;;;;;;;16.60;100.00;97261.47;4937465;28;20209;-65
2023/09/15 07:33:04;;;;;;;3.97;3.60;;;;;;;17.20;100.00;97254.69;4941893;28;20302;-64
2023/09/15 07:35:34;;;;;;;4.17;3.80;;;;;;;17.25;100.00;97264.72;4936915;28;20223;-63
2023/09/15 07:38:02;;;;;;;4.17;3.93;;;;;;;17.30;100.00;97264.03;4939632;28;20506;-66
2023/09/15 07:40:30;;;;;;;4.10;3.80;;;;;;;17.46;100.00;97271.47;4936832;28;20211;-63
2023/09/15 07:42:58;;;;;;;3.77;3.50;;;;;;;17.44;100.00;97262.84;4938095;28;20207;-61
2023/09/15 07:45:27;;;;;;;4.07;3.67;;;;;;;17.35;100.00;97270.38;4894135;28;20230;-63
2023/09/15 07:47:54;;;;;;;4.17;3.77;;;;;;;17.35;100.00;97261.50;4940038;28;20659;-64
2023/09/15 07:50:23;;;;;;;3.83;3.63;;;;;;;17.27;100.00;97265.31;4933872;28;20296;-63
2023/09/15 07:52:51;;;;;;;3.60;3.27;;;;;;;17.13;100.00;97266.50;4939025;28;20656;-66
2023/09/15 07:55:19;;;;;;;5.87;3.77;;;;;;;17.17;100.00;97262.34;4933054;28;20258;-63
2023/09/15 07:57:46;;;;;;;5.93;3.80;;;;;;;17.19;100.00;97261.09;4940492;28;20222;-65
2023/09/15 08:00:15;;;;;;;3.27;3.07;;;;;;;17.06;100.00;97262.06;4833878;28;21526;-59
2023/09/15 08:02:43;;;;;;;3.77;3.57;;;;;;;17.05;100.00;97260.41;4932185;28;20222;-62
2023/09/15 08:05:11;;;;;;;3.80;3.53;;;;;;;17.15;100.00;97254.53;4934976;28;20235;-64
2023/09/15 08:07:44;;;;;;;4.17;3.90;;;;;;;17.19;100.00;97254.91;4939578;28;20671;-62
2023/09/15 08:10:12;;;;;;;3.67;3.47;;;;;;;17.03;100.00;97248.28;4934909;28;20871;-64
2023/09/15 08:12:40;;;;;;;4.60;3.97;;;;;;;17.23;100.00;97245.38;4938903;28;20223;-64
2023/09/15 08:15:10;;;;;;;8.57;4.33;;;;;;;17.40;100.00;97242.09;4936706;28;20286;-65
2023/09/15 08:17:38;;;;;;;4.13;3.63;;;;;;;17.44;100.00;97246.78;4938776;28;20230;-63
2023/09/15 08:20:07;;;;;;;3.83;3.63;;;;;;;17.59;100.00;97243.66;4900443;28;20216;-62
2023/09/15 08:22:38;;;;;;;5.53;3.80;;;;;;;17.83;100.00;97243.75;4930328;28;20219;-60
2023/09/15 08:25:07;;;;;;;3.87;3.57;;;;;;;18.00;100.00;97243.91;4935071;28;20487;-64
2023/09/15 08:27:35;;;;;;;3.47;3.27;;;;;;;18.14;100.00;97243.69;4936436;28;20236;-62
2023/09/15 08:30:04;;;;;;;4.00;3.70;;;;;;;18.15;100.00;97232.75;4936273;28;20664;-66
2023/09/15 08:32:32;;;;;;;3.33;3.13;;;;;;;18.21;100.00;97233.72;4940115;28;20738;-60
2023/09/15 08:35:00;;;;;;;3.13;2.80;;;;;;;18.13;100.00;97220.63;4853272;28;20404;-64
2023/09/15 08:37:28;;;;;;;3.77;3.57;;;;;;;18.21;100.00;97236.38;4898917;28;20250;-63
2023/09/15 08:39:56;;;;;;;3.40;3.20;;;;;;;18.28;100.00;97242.44;4935054;28;20212;-66
2023/09/15 08:42:27;;;;;;;5.23;3.23;;;;;;;18.27;100.00;97231.94;4937220;28;20231;-63
2023/09/15 08:44:56;;;;;;;4.23;3.83;;;;;;;18.28;100.00;97236.25;4937545;28;20290;-64
2023/09/15 08:47:27;;;;;;;4.10;3.70;;;;;;;18.31;100.00;97243.84;4940715;28;20257;-58
2023/09/15 08:49:55;;;;;;;3.47;3.27;;;;;;;18.21;100.00;97229.16;4919788;28;20270;-64
2023/09/15 08:52:23;;;;;;;3.50;3.30;;;;;;;18.25;100.00;97236.72;4917190;28;20262;-62
2023/09/15 08:54:52;;;;;;;3.20;3.10;;;;;;;18.43;100.00;97243.84;4938472;28;20233;-66
2023/09/15 08:57:20;;;;;;;3.50;3.30;;;;;;;18.57;100.00;97239.06;4939014;28;20207;-60
2023/09/15 08:59:50;;;;;;;3.93;3.73;;;;;;;18.59;100.00;97248.53;4940943;28;20321;-64
2023/09/15 09:02:21;;;;;;;3.33;3.20;;;;;;;18.56;100.00;97240.94;4938504;28;20296;-64
2023/09/15 09:04:49;;;;;;;3.43;3.23;;;;;;;18.51;100.00;97248.84;4883496;28;20250;-63
2023/09/15 09:07:17;;;;;;;3.83;3.63;;;;;;;18.68;100.00;97248.16;4865558;28;20238;-64
2023/09/15 09:09:46;;;;;;;3.30;3.10;;;;;;;18.86;100.00;97239.16;4942032;28;20209;-66
2023/09/15 09:12:14;;;;;;;3.70;3.47;;;;;;;18.99;100.00;97238.91;4934286;28;20397;-59
2023/09/15 09:14:42;;;;;;;3.50;3.30;;;;;;;18.99;100.00;97236.22;4939955;28;20232;-65
2023/09/15 09:17:12;;;;;;;4.03;3.73;;;;;;;18.73;100.00;97229.50;4936027;28;20238;-64
2023/09/15 09:19:42;;;;;;;3.67;3.47;;;;;;;18.83;100.00;97234.25;4939603;28;20988;-64
2023/09/15 09:22:10;;;;;;;4.13;3.93;;;;;;;18.91;100.00;97228.53;4937291;28;20310;-63
2023/09/15 09:24:38;;;;;;;3.87;3.57;;;;;;;18.95;100.00;97222.47;4936737;28;20719;-63
2023/09/15 09:27:08;;;;;;;3.50;3.30;;;;;;;19.12;100.00;97229.78;4896395;28;20835;-63
2023/09/15 09:29:37;;;;;;;3.37;3.20;;;;;;;19.27;100.00;97226.59;4936913;28;20289;-64
2023/09/15 09:32:05;;;;;;;3.93;3.73;;;;;;;19.32;100.00;97228.53;4938334;28;20199;-58
2023/09/15 09:34:34;;;;;;;3.37;3.17;;;;;;;19.24;100.00;97229.75;4875969;28;20242;-64
2023/09/15 09:37:14;;;;;;;3.67;3.47;;;;;;;19.45;100.00;97222.06;4942356;28;20337;-64
2023/09/15 09:39:42;;;;;;;3.20;3.00;;;;;;;19.60;100.00;97222.38;4806023;28;20231;-63
2023/09/15 09:42:11;;;;;;;3.43;3.23;;;;;;;19.57;100.00;97222.84;4936218;28;20631;-64
2023/09/15 09:44:38;;;;;;;3.93;3.63;;;;;;;19.65;100.00;97216.25;4932392;28;20230;-64
2023/09/15 09:47:08;;;;;;;3.43;3.23;;;;;;;19.73;100.00;97225.78;4939344;28;20364;-62
2023/09/15 09:49:37;;;;;;;3.70;3.50;;;;;;;19.74;100.00;97224.75;4934974;28;20289;-64
2023/09/15 09:52:05;;;;;;;3.83;3.53;;;;;;;19.86;100.00;97220.09;4937964;28;20238;-63
2023/09/15 09:54:34;;;;;;;3.40;3.20;;;;;;;19.96;100.00;97227.56;4934096;28;20312;-62
2023/09/15 09:57:02;;;;;;;3.20;3.00;;;;;;;19.98;100.00;97224.63;4936278;28;20289;-66
2023/09/15 09:59:30;;;;;;;4.20;3.80;;;;;;;19.95;100.00;97225.94;4889115;28;20219;-65
2023/09/15 10:01:58;;;;;;;3.60;3.40;;;;;;;19.64;100.00;97217.31;4938175;28;20241;-60
2023/09/15 10:04:25;;;;;;;4.07;3.83;;;;;;;19.80;100.00;97210.31;4932744;28;20318;-64
2023/09/15 10:06:55;;;;;;;4.10;3.80;;;;;;;19.97;100.00;97205.00;4940203;28;20263;-62
2023/09/15 10:09:22;;;;;;;3.57;3.37;;;;;;;19.93;100.00;97204.69;4804535;28;20222;-66
2023/09/15 10:11:53;;;;;;;3.37;3.17;;;;;;;20.16;100.00;97216.31;4939144;28;20216;-63
2023/09/15 10:14:21;;;;;;;3.47;3.27;;;;;;;20.10;100.00;97210.06;4934996;28;20219;-66
2023/09/15 10:16:49;;;;;;;3.70;3.40;;;;;;;20.33;100.00;97215.50;4939082;28;20207;-64
2023/09/15 10:19:16;;;;;;;4.13;3.83;;;;;;;20.43;100.00;97204.06;4936558;28;20242;-65
2023/09/15 10:21:45;;;;;;;3.47;3.27;;;;;;;20.58;100.00;97208.84;4936645;28;20204;-59
2023/09/15 10:24:16;;;;;;;3.40;3.20;;;;;;;20.69;100.00;97197.16;4933823;28;20249;-64
2023/09/15 10:26:44;;;;;;;4.27;3.93;;;;;;;20.77;100.00;97201.28;4935107;28;20216;-62
2023/09/15 10:29:12;;;;;;;3.70;3.50;;;;;;;20.89;100.00;97199.34;4922067;28;20290;-63
2023/09/15 10:31:41;;;;;;;4.10;3.90;;;;;;;20.83;100.00;97197.63;4898015;28;20215;-61
2023/09/15 10:34:09;;;;;;;3.33;3.13;;;;;;;20.82;100.00;97193.31;4936978;28;20215;-65
2023/09/15 10:36:39;;;;;;;3.90;3.53;;;;;;;20.84;100.00;97195.75;4933786;28;20721;-59
2023/09/15 10:39:13;;;;;;;3.63;3.33;;;;;;;20.91;100.00;97186.44;4909394;28;20226;-63
2023/09/15 10:41:42;;;;;;;3.57;3.37;;;;;;;20.88;100.00;97184.25;4846370;28;20214;-67
2023/09/15 10:44:10;;;;;;;3.80;3.60;;;;;;;21.01;100.00;97180.34;4928114;28;20211;-63
2023/09/15 10:46:38;;;;;;;3.70;3.50;;;;;;;21.05;100.00;97175.28;4887455;28;20242;-60
2023/09/15 10:49:16;;;;;;;3.40;3.20;;;;;;;20.95;100.00;97190.25;4937609;28;20264;-65
2023/09/15 10:51:54;;;;;;;3.50;3.30;;;;;;;20.95;100.00;97190.25;4935288;28;20642;-66
2023/09/15 10:54:24;;;;;;;3.73;3.53;;;;;;;20.99;100.00;97182.47;4936386;28;20222;-65
2023/09/15 10:56:55;;;;;;;3.77;3.57;;;;;;;21.15;100.00;97177.28;4928474;28;20207;-60
2023/09/15 10:59:22;;;;;;;3.47;3.27;;;;;;;21.25;100.00;97166.59;4935433;28;20258;-65
2023/09/15 11:01:50;;;;;;;3.37;3.17;;;;;;;21.43;100.00;97170.81;4938480;28;20677;-63
2023/09/15 11:04:21;;;;;;;3.20;3.00;;;;;;;21.47;100.00;97165.75;4915086;28;20808;-64
2023/09/15 11:06:51;;;;;;;3.83;3.53;;;;;;;21.18;100.00;97161.41;4912432;28;20224;-63
2023/09/15 11:09:27;;;;;;;3.20;3.10;;;;;;;21.30;100.00;97163.94;4895772;28;20258;-64
2023/09/15 11:11:59;;;;;;;3.53;3.33;;;;;;;21.32;100.00;97155.63;4887361;28;20210;-61
2023/09/15 11:14:27;;;;;;;3.50;3.30;;;;;;;21.32;100.00;97164.50;4937387;28;20313;-67
2023/09/15 11:16:56;;;;;;;3.57;3.37;;;;;;;21.50;100.00;97159.84;4937604;28;20209;-62
2023/09/15 11:19:26;;;;;;;3.20;3.10;;;;;;;21.50;100.00;97157.16;4937583;28;20226;-66
2023/09/15 11:21:54;;;;;;;3.23;3.13;;;;;;;21.54;100.00;97150.19;4931200;28;20207;-63
2023/09/15 11:24:22;;;;;;;2.87;2.67;;;;;;;21.58;100.00;97155.84;4936482;28;21056;-63
2023/09/15 11:26:51;;;;;;;3.20;3.00;;;;;;;21.58;100.00;97151.28;4929834;28;20782;-64
2023/09/15 11:29:25;;;;;;;3.73;3.43;;;;;;;21.71;94.67;97162.72;4888522;28;20714;-63
2023/09/15 11:31:53;;;;;;;3.40;2.70;;;;;;;21.63;93.14;97153.22;4935684;28;20217;-65